createdAt,value
2018-03-16T00:01:33.809Z,8.80
2018-03-16T00:04:01.437Z,8.67
2018-03-16T00:06:29.094Z,8.72
2018-03-16T00:08:56.695Z,8.64
2018-03-16T00:11:24.331Z,8.62
2018-03-16T00:13:51.927Z,8.48
2018-03-16T00:16:19.540Z,8.55
2018-03-16T00:18:47.126Z,8.63
2018-03-16T00:21:14.718Z,8.61
2018-03-16T00:23:42.344Z,8.57
2018-03-16T00:26:09.939Z,8.48
2018-03-16T00:28:37.576Z,8.64
2018-03-16T00:31:05.163Z,8.65
2018-03-16T00:33:32.752Z,8.77
2018-03-16T00:36:00.363Z,8.83
2018-03-16T00:38:27.963Z,8.73
2018-03-16T00:40:55.593Z,8.83
2018-03-16T00:43:23.189Z,8.80
2018-03-16T00:45:50.791Z,8.76
2018-03-16T00:48:18.411Z,8.67
2018-03-16T00:50:46.015Z,8.70
2018-03-16T00:53:13.630Z,8.58
2018-03-16T00:55:41.528Z,8.27
2018-03-16T00:58:09.125Z,8.38
2018-03-16T01:00:36.733Z,8.52
2018-03-16T01:03:04.336Z,8.60
2018-03-16T01:05:32.776Z,8.61
2018-03-16T01:08:00.388Z,8.61
2018-03-16T01:10:27.972Z,8.61
2018-03-16T01:12:55.589Z,8.55
2018-03-16T01:15:23.180Z,8.54
2018-03-16T01:17:50.805Z,8.61
2018-03-16T01:20:18.407Z,8.59
2018-03-16T01:22:46.000Z,8.59
2018-03-16T01:25:13.611Z,8.68
2018-03-16T01:27:41.209Z,8.56
2018-03-16T01:30:08.845Z,8.67
2018-03-16T01:32:36.437Z,8.52
2018-03-16T01:35:04.026Z,8.47
2018-03-16T01:37:31.636Z,8.58
2018-03-16T01:39:59.238Z,8.56
2018-03-16T01:42:27.117Z,8.22
2018-03-16T01:44:54.712Z,8.22
2018-03-16T01:47:22.300Z,8.31
2018-03-16T01:49:49.908Z,8.32
2018-03-16T01:52:17.516Z,8.28
2018-03-16T01:54:45.105Z,8.34
2018-03-16T01:57:12.725Z,8.42
2018-03-16T01:59:40.327Z,8.46
2018-03-16T02:02:08.209Z,8.52
2018-03-16T02:04:35.803Z,8.54
2018-03-16T02:07:03.390Z,8.44
2018-03-16T02:09:31.050Z,8.54
2018-03-16T02:11:58.640Z,8.48
2018-03-16T02:14:26.241Z,8.38
2018-03-16T02:16:54.166Z,8.39
2018-03-16T02:19:21.781Z,8.42
2018-03-16T02:21:49.379Z,8.37
2018-03-16T02:24:17.062Z,8.39
2018-03-16T02:26:44.662Z,8.39
2018-03-16T02:29:12.676Z,8.43
2018-03-16T02:31:40.268Z,8.43
2018-03-16T02:34:07.900Z,8.39
2018-03-16T02:36:35.521Z,8.18
2018-03-16T02:39:03.112Z,8.03
2018-03-16T02:41:30.764Z,8.04
2018-03-16T02:43:58.362Z,7.89
2018-03-16T02:46:25.960Z,7.88
2018-03-16T02:48:53.680Z,7.86
2018-03-16T02:51:21.272Z,7.85
2018-03-16T02:53:49.103Z,7.88
2018-03-16T02:56:16.697Z,7.91
2018-03-16T02:58:44.296Z,7.90
2018-03-16T03:01:11.916Z,8.00
2018-03-16T03:03:39.531Z,8.11
2018-03-16T03:06:07.420Z,8.14
2018-03-16T03:08:35.012Z,8.18
2018-03-16T03:11:02.599Z,8.16
2018-03-16T03:13:30.287Z,8.23
2018-03-16T03:15:57.874Z,8.17
2018-03-16T03:18:25.829Z,8.17
2018-03-16T03:20:53.707Z,8.12
2018-03-16T03:23:21.300Z,8.07
2018-03-16T03:25:48.916Z,8.01
2018-03-16T03:28:16.590Z,8.13
2018-03-16T03:30:44.317Z,8.18
2018-03-16T03:33:11.912Z,8.04
2018-03-16T03:35:39.503Z,8.06
2018-03-16T03:38:07.902Z,8.04
2018-03-16T03:40:35.496Z,7.99
2018-03-16T03:43:03.136Z,7.98
2018-03-16T03:45:30.731Z,8.02
2018-03-16T03:47:58.343Z,8.05
2018-03-16T03:50:25.968Z,8.07
2018-03-16T03:52:53.568Z,8.09
2018-03-16T03:55:21.196Z,7.89
2018-03-16T03:57:48.791Z,7.91
2018-03-16T04:00:16.390Z,7.91
2018-03-16T04:02:44.007Z,7.93
2018-03-16T04:05:11.597Z,7.92
2018-03-16T04:07:39.533Z,7.87
2018-03-16T04:10:07.140Z,7.64
2018-03-16T04:12:34.736Z,7.71
2018-03-16T04:15:02.353Z,7.79
2018-03-16T04:17:30.043Z,7.83
2018-03-16T04:19:57.897Z,7.87
2018-03-16T04:22:25.496Z,7.85
2018-03-16T04:24:53.092Z,7.88
2018-03-16T04:27:21.421Z,7.89
2018-03-16T04:29:49.021Z,7.99
2018-03-16T04:32:16.944Z,8.02
2018-03-16T04:34:44.542Z,8.06
2018-03-16T04:37:12.139Z,8.02
2018-03-16T04:39:39.759Z,8.11
2018-03-16T04:42:07.357Z,8.06
2018-03-16T04:44:34.972Z,8.01
2018-03-16T04:47:02.584Z,8.02
2018-03-16T04:49:30.375Z,7.96
2018-03-16T04:51:57.975Z,7.76
2018-03-16T04:54:25.588Z,7.83
2018-03-16T04:56:53.251Z,7.94
2018-03-16T04:59:20.847Z,7.93
2018-03-16T05:01:48.468Z,7.89
2018-03-16T05:04:16.135Z,7.89
2018-03-16T05:06:44.195Z,7.95
2018-03-16T05:09:11.783Z,7.93
2018-03-16T05:11:39.380Z,7.97
2018-03-16T05:14:07.007Z,7.93
2018-03-16T05:16:34.609Z,8.00
2018-03-16T05:19:02.449Z,8.01
2018-03-16T05:21:30.033Z,8.03
2018-03-16T05:23:57.628Z,8.08
2018-03-16T05:26:25.244Z,8.10
2018-03-16T05:28:52.992Z,8.21
2018-03-16T05:31:20.627Z,8.18
2018-03-16T05:33:48.216Z,8.13
2018-03-16T05:36:15.853Z,8.04
2018-03-16T05:38:43.456Z,8.07
2018-03-16T05:41:11.053Z,8.23
2018-03-16T05:43:38.665Z,8.24
2018-03-16T05:46:06.256Z,8.29
2018-03-16T05:48:33.880Z,8.32
2018-03-16T05:51:01.486Z,8.22
2018-03-16T05:53:29.119Z,8.30
2018-03-16T05:55:56.722Z,8.31
2018-03-16T05:58:24.334Z,8.42
2018-03-16T06:00:52.036Z,8.37
2018-03-16T06:03:19.600Z,8.37
2018-03-16T06:05:47.215Z,8.47
2018-03-16T06:08:14.848Z,8.46
2018-03-16T06:10:42.504Z,8.40
2018-03-16T06:13:10.098Z,8.21
2018-03-16T06:15:37.684Z,8.21
2018-03-16T06:18:05.312Z,8.30
2018-03-16T06:20:32.942Z,8.18
2018-03-16T06:23:00.554Z,8.25
2018-03-16T06:25:28.158Z,8.13
2018-03-16T06:27:56.032Z,8.27
2018-03-16T06:30:23.807Z,8.23
2018-03-16T06:32:51.400Z,8.30
2018-03-16T06:35:19.058Z,8.30
2018-03-16T06:37:46.655Z,8.21
2018-03-16T06:40:14.320Z,8.12
2018-03-16T06:42:41.923Z,8.32
2018-03-16T06:45:09.839Z,8.11
2018-03-16T06:47:37.438Z,8.11
2018-03-16T06:50:05.034Z,8.25
2018-03-16T06:52:32.698Z,8.23
2018-03-16T06:55:00.304Z,8.34
2018-03-16T06:57:27.977Z,8.53
2018-03-16T06:59:55.574Z,8.52
2018-03-16T07:02:23.397Z,8.59
2018-03-16T07:04:50.993Z,8.73
2018-03-16T07:07:18.585Z,8.83
2018-03-16T07:09:46.200Z,8.85
2018-03-16T07:12:13.863Z,8.98
2018-03-16T07:14:41.519Z,8.94
2018-03-16T07:17:09.133Z,9.14
2018-03-16T07:19:37.257Z,9.36
2018-03-16T07:22:04.860Z,9.22
2018-03-16T07:24:32.456Z,9.38
2018-03-16T07:27:00.090Z,9.33
2018-03-16T07:29:27.690Z,9.34
2018-03-16T07:31:55.307Z,9.35
2018-03-16T07:34:22.905Z,9.44
2018-03-16T07:36:50.552Z,9.38
2018-03-16T07:39:18.152Z,9.09
2018-03-16T07:41:45.764Z,9.11
2018-03-16T07:44:13.446Z,9.26
2018-03-16T07:46:41.060Z,9.28
2018-03-16T07:49:08.685Z,9.22
2018-03-16T07:51:36.298Z,9.13
2018-03-16T07:54:04.217Z,8.99
2018-03-16T07:56:31.817Z,9.12
2018-03-16T07:58:59.416Z,9.16
2018-03-16T08:01:27.032Z,9.13
2018-03-16T08:03:54.641Z,9.27
2018-03-16T08:06:22.272Z,9.14
2018-03-16T08:08:49.873Z,9.33
2018-03-16T08:11:17.758Z,9.37
2018-03-16T08:13:45.364Z,9.33
2018-03-16T08:16:12.988Z,9.31
2018-03-16T08:18:40.608Z,9.43
2018-03-16T08:21:08.199Z,9.58
2018-03-16T08:23:35.823Z,9.51
2018-03-16T08:26:03.421Z,9.61
2018-03-16T08:28:31.036Z,9.81
2018-03-16T08:30:58.660Z,9.97
2018-03-16T08:33:26.259Z,9.97
2018-03-16T08:35:53.887Z,10.12
2018-03-16T08:38:21.531Z,10.36
2018-03-16T08:40:49.143Z,10.32
2018-03-16T08:43:16.784Z,10.39
2018-03-16T08:45:44.394Z,10.47
2018-03-16T08:48:12.188Z,10.57
2018-03-16T08:50:39.785Z,10.54
2018-03-16T08:53:07.390Z,10.22
2018-03-16T08:55:35.293Z,10.49
2018-03-16T08:58:03.160Z,10.35
2018-03-16T09:00:30.837Z,10.05
2018-03-16T09:02:58.440Z,10.26
2018-03-16T09:05:26.851Z,10.54
2018-03-16T09:07:54.467Z,10.53
2018-03-16T09:10:22.078Z,10.66
2018-03-16T09:12:49.712Z,10.82
2018-03-16T09:15:17.322Z,10.79
2018-03-16T09:17:44.935Z,10.97
2018-03-16T09:20:12.715Z,11.23
2018-03-16T09:22:40.351Z,10.67
2018-03-16T09:25:08.365Z,11.00
2018-03-16T09:27:36.332Z,10.61
2018-03-16T09:30:03.976Z,10.61
2018-03-16T09:32:32.055Z,10.44
2018-03-16T09:35:00.006Z,10.45
2018-03-16T09:37:27.612Z,10.76
2018-03-16T09:39:55.205Z,10.71
2018-03-16T09:42:22.816Z,10.94
2018-03-16T09:44:50.423Z,10.63
2018-03-16T09:47:18.175Z,10.73
2018-03-16T09:49:45.757Z,10.84
2018-03-16T09:52:13.560Z,10.49
2018-03-16T09:54:53.405Z,10.39
2018-03-16T09:57:21.290Z,10.60
2018-03-16T09:59:49.266Z,10.40
2018-03-16T10:02:16.919Z,10.17
2018-03-16T10:04:44.532Z,10.39
2018-03-16T10:07:12.332Z,10.20
2018-03-16T10:09:40.605Z,10.08
2018-03-16T10:12:08.267Z,10.17
2018-03-16T10:14:35.908Z,10.15
2018-03-16T10:17:03.509Z,10.38
2018-03-16T10:19:31.123Z,10.23
2018-03-16T10:21:58.732Z,10.36
2018-03-16T10:24:26.670Z,10.30
2018-03-16T10:26:54.549Z,10.50
2018-03-16T10:29:22.220Z,10.47
2018-03-16T10:31:50.187Z,10.05
2018-03-16T10:34:17.814Z,10.05
2018-03-16T10:36:45.415Z,10.06
2018-03-16T10:39:13.024Z,10.08
2018-03-16T10:41:40.924Z,10.22
2018-03-16T10:44:08.568Z,10.33
2018-03-16T10:46:36.198Z,10.18
2018-03-16T10:49:04.074Z,10.15
2018-03-16T10:51:31.660Z,10.54
2018-03-16T10:53:59.290Z,10.68
2018-03-16T10:56:26.920Z,10.71
2018-03-16T10:58:54.511Z,10.49
2018-03-16T11:01:22.456Z,10.66
2018-03-16T11:03:51.303Z,10.64
2018-03-16T11:06:24.616Z,10.64
2018-03-16T11:08:52.216Z,10.73
2018-03-16T11:11:19.834Z,11.02
2018-03-16T11:13:47.443Z,10.99
2018-03-16T11:16:15.621Z,11.16
2018-03-16T11:18:43.207Z,11.10
2018-03-16T11:21:10.807Z,11.05
2018-03-16T11:23:38.435Z,11.13
2018-03-16T11:26:06.114Z,11.36
2018-03-16T11:28:33.728Z,11.32
2018-03-16T11:31:01.477Z,11.22
2018-03-16T11:33:29.557Z,11.08
2018-03-16T11:35:57.160Z,10.97
2018-03-16T11:38:24.778Z,11.14
2018-03-16T11:40:52.418Z,11.32
2018-03-16T11:43:20.115Z,11.28
2018-03-16T11:45:47.755Z,11.14
2018-03-16T11:48:15.470Z,11.18
2018-03-16T11:50:43.147Z,11.02
2018-03-16T11:53:10.744Z,11.20
2018-03-16T11:55:38.333Z,10.95
2018-03-16T11:58:05.951Z,10.70
2018-03-16T12:00:33.563Z,10.71
2018-03-16T12:03:01.195Z,10.56
2018-03-16T12:05:29.029Z,10.57
2018-03-16T12:07:57.105Z,10.50
2018-03-16T12:10:24.699Z,10.74
2018-03-16T12:12:52.604Z,10.57
2018-03-16T12:15:20.520Z,10.30
2018-03-16T12:17:48.128Z,10.35
2018-03-16T12:20:15.755Z,10.41
2018-03-16T12:22:43.352Z,10.52
2018-03-16T12:25:10.938Z,10.57
2018-03-16T12:27:38.552Z,10.64
2018-03-16T12:30:06.167Z,10.78
2018-03-16T12:32:33.788Z,11.12
2018-03-16T12:35:01.651Z,10.92
2018-03-16T12:37:29.558Z,10.72
2018-03-16T12:39:57.156Z,11.00
2018-03-16T12:42:25.033Z,11.24
2018-03-16T12:44:52.984Z,11.26
2018-03-16T12:47:20.589Z,11.15
2018-03-16T12:49:48.239Z,11.21
2018-03-16T12:52:15.828Z,11.18
2018-03-16T12:54:43.824Z,10.97
2018-03-16T12:57:11.406Z,10.94
2018-03-16T12:59:38.998Z,11.13
2018-03-16T13:02:06.615Z,11.25
2018-03-16T13:04:34.216Z,11.46
2018-03-16T13:07:01.820Z,11.16
2018-03-16T13:09:29.416Z,10.96
2018-03-16T13:11:57.374Z,11.15
2018-03-16T13:14:25.353Z,11.21
2018-03-16T13:16:52.981Z,11.07
2018-03-16T13:19:20.643Z,10.95
2018-03-16T13:21:48.232Z,10.73
2018-03-16T13:24:16.964Z,10.53
2018-03-16T13:26:44.885Z,10.55
2018-03-16T13:29:12.956Z,10.22
2018-03-16T13:31:41.051Z,10.10
2018-03-16T13:34:08.659Z,10.33
2018-03-16T13:36:38.285Z,10.34
2018-03-16T13:39:05.889Z,10.27
2018-03-16T13:41:33.829Z,10.26
2018-03-16T13:44:01.801Z,9.99
2018-03-16T13:46:29.459Z,10.12
2018-03-16T13:48:57.588Z,10.00
2018-03-16T13:51:25.201Z,10.14
2018-03-16T13:53:52.918Z,10.01
2018-03-16T13:56:20.527Z,10.14
2018-03-16T13:58:48.136Z,10.08
2018-03-16T14:01:15.806Z,10.07
2018-03-16T14:03:43.420Z,10.13
2018-03-16T14:06:11.033Z,10.27
2018-03-16T14:08:38.655Z,10.30
2018-03-16T14:11:06.386Z,10.34
2018-03-16T14:13:34.252Z,10.29
2018-03-16T14:16:02.034Z,10.49
2018-03-16T14:18:29.911Z,10.45
2018-03-16T14:20:57.512Z,10.55
2018-03-16T14:23:25.096Z,10.63
2018-03-16T14:25:52.757Z,10.57
2018-03-16T14:28:20.352Z,10.56
2018-03-16T14:30:48.013Z,10.44
2018-03-16T14:33:15.839Z,10.44
2018-03-16T14:35:43.966Z,10.47
2018-03-16T14:38:11.636Z,10.47
2018-03-16T14:40:39.290Z,10.47
2018-03-16T14:43:06.999Z,10.43
2018-03-16T14:45:34.657Z,10.38
2018-03-16T14:48:03.497Z,10.52
2018-03-16T14:50:31.444Z,10.62
2018-03-16T14:52:59.397Z,10.57
2018-03-16T14:55:26.995Z,10.78
2018-03-16T14:57:54.588Z,10.91
2018-03-16T15:00:22.220Z,10.73
2018-03-16T15:02:49.816Z,10.68
2018-03-16T15:05:17.608Z,10.54
2018-03-16T15:07:45.213Z,10.40
2018-03-16T15:10:12.856Z,10.51
2018-03-16T15:12:40.479Z,10.67
2018-03-16T15:15:08.100Z,10.67
2018-03-16T15:17:35.716Z,10.69
2018-03-16T15:20:10.613Z,10.69
2018-03-16T15:22:47.476Z,10.81
2018-03-16T15:25:15.769Z,10.76
2018-03-16T15:27:43.382Z,10.93
2018-03-16T15:30:10.994Z,10.93
2018-03-16T15:32:38.781Z,10.82
2018-03-16T15:35:06.372Z,11.19
2018-03-16T15:37:34.656Z,11.23
2018-03-16T15:40:02.406Z,11.11
2018-03-16T15:42:29.997Z,10.86
2018-03-16T15:44:57.604Z,11.03
2018-03-16T15:47:25.197Z,10.90
2018-03-16T15:49:53.371Z,10.90
2018-03-16T15:52:21.234Z,10.86
2018-03-16T15:54:48.827Z,10.79
2018-03-16T15:57:16.444Z,11.07
2018-03-16T15:59:44.039Z,10.74
2018-03-16T16:02:11.668Z,10.77
2018-03-16T16:04:39.268Z,10.82
2018-03-16T16:07:07.082Z,10.81
2018-03-16T16:09:34.684Z,10.89
2018-03-16T16:12:02.288Z,10.77
2018-03-16T16:14:29.971Z,10.88
2018-03-16T16:16:57.572Z,10.92
2018-03-16T16:19:25.530Z,10.93
2018-03-16T16:21:53.385Z,10.91
2018-03-16T16:24:21.246Z,10.93
2018-03-16T16:26:48.841Z,10.90
2018-03-16T16:29:16.441Z,10.73
2018-03-16T16:31:44.069Z,10.59
2018-03-16T16:34:11.667Z,10.75
2018-03-16T16:36:39.277Z,10.66
2018-03-16T16:39:06.890Z,10.57
2018-03-16T16:41:34.740Z,10.59
2018-03-16T16:44:02.346Z,10.63
2018-03-16T16:46:29.947Z,10.65
2018-03-16T16:48:57.565Z,10.79
2018-03-16T16:51:25.150Z,10.52
2018-03-16T16:53:52.993Z,10.57
2018-03-16T16:56:21.098Z,10.52
2018-03-16T16:58:49.225Z,10.78
2018-03-16T17:01:16.828Z,10.69
2018-03-16T17:03:44.466Z,10.52
2018-03-16T17:06:12.112Z,10.55
2018-03-16T17:08:39.700Z,10.69
2018-03-16T17:11:07.325Z,10.89
2018-03-16T17:13:34.916Z,10.64
2018-03-16T17:16:02.625Z,10.62
2018-03-16T17:18:30.227Z,10.59
2018-03-16T17:20:57.848Z,10.52
2018-03-16T17:23:25.470Z,10.43
2018-03-16T17:25:53.098Z,10.40
2018-03-16T17:28:20.715Z,10.26
2018-03-16T17:30:48.296Z,10.42
2018-03-16T17:33:15.923Z,10.17
2018-03-16T17:35:43.541Z,9.91
2018-03-16T17:38:11.136Z,10.11
2018-03-16T17:40:38.781Z,9.98
2018-03-16T17:43:06.392Z,9.99
2018-03-16T17:45:34.007Z,9.78
2018-03-16T17:48:01.657Z,9.66
2018-03-16T17:50:29.320Z,9.88
2018-03-16T17:52:56.939Z,10.01
2018-03-16T17:55:24.524Z,9.78
2018-03-16T17:57:52.144Z,9.71
2018-03-16T18:00:19.730Z,9.75
2018-03-16T18:02:47.330Z,9.91
2018-03-16T18:05:14.964Z,9.94
2018-03-16T18:07:42.556Z,9.86
2018-03-16T18:10:10.180Z,9.70
2018-03-16T18:12:37.769Z,9.52
2018-03-16T18:15:05.368Z,9.61
2018-03-16T18:17:33.005Z,9.60
2018-03-16T18:20:00.641Z,9.43
2018-03-16T18:22:28.268Z,9.41
2018-03-16T18:24:55.857Z,9.41
2018-03-16T18:27:23.449Z,9.53
2018-03-16T18:29:51.062Z,9.50
2018-03-16T18:32:18.697Z,9.42
2018-03-16T18:34:46.514Z,9.50
2018-03-16T18:37:14.099Z,9.67
2018-03-16T18:39:41.698Z,9.66
2018-03-16T18:42:09.310Z,9.50
2018-03-16T18:44:36.903Z,9.57
2018-03-16T18:47:04.739Z,9.74
2018-03-16T18:49:32.351Z,9.87
2018-03-16T18:52:00.042Z,9.88
2018-03-16T18:54:27.663Z,9.95
2018-03-16T18:56:55.261Z,10.04
2018-03-16T18:59:22.911Z,9.85
2018-03-16T19:01:50.505Z,9.61
2018-03-16T19:04:18.648Z,9.63
2018-03-16T19:06:46.264Z,9.94
2018-03-16T19:09:13.868Z,10.01
2018-03-16T19:11:41.521Z,9.95
2018-03-16T19:14:09.148Z,9.92
2018-03-16T19:16:36.784Z,9.99
2018-03-16T19:19:04.361Z,9.80
2018-03-16T19:21:32.005Z,9.66
2018-03-16T19:23:59.620Z,9.85
2018-03-16T19:26:27.213Z,9.91
2018-03-16T19:28:54.862Z,10.00
2018-03-16T19:31:22.453Z,10.09
2018-03-16T19:33:50.313Z,10.15
2018-03-16T19:36:17.920Z,10.20
2018-03-16T19:38:45.515Z,10.21
2018-03-16T19:41:13.139Z,10.10
2018-03-16T19:43:40.740Z,10.10
2018-03-16T19:46:08.369Z,10.15
2018-03-16T19:48:36.003Z,10.01
2018-03-16T19:51:03.798Z,10.13
2018-03-16T19:53:31.422Z,10.18
2018-03-16T19:55:59.032Z,10.07
2018-03-16T19:58:26.660Z,10.09
2018-03-16T20:00:54.258Z,9.87
2018-03-16T20:03:21.871Z,9.83
2018-03-16T20:05:49.468Z,9.80
2018-03-16T20:08:17.059Z,9.96
2018-03-16T20:10:44.676Z,9.70
2018-03-16T20:13:12.272Z,9.70
2018-03-16T20:15:39.922Z,9.67
2018-03-16T20:18:07.520Z,9.56
2018-03-16T20:20:35.108Z,9.59
2018-03-16T20:23:02.732Z,9.61
2018-03-16T20:25:30.341Z,9.71
2018-03-16T20:27:58.009Z,9.68
2018-03-16T20:30:25.605Z,9.63
2018-03-16T20:32:53.247Z,9.69
2018-03-16T20:35:20.861Z,9.67
2018-03-16T20:37:48.456Z,9.69
2018-03-16T20:40:16.064Z,9.67
2018-03-16T20:42:43.653Z,9.67
2018-03-16T20:45:11.499Z,9.63
2018-03-16T20:47:39.088Z,9.64
2018-03-16T20:50:06.776Z,9.84
2018-03-16T20:52:34.390Z,9.71
2018-03-16T20:55:01.993Z,9.46
2018-03-16T20:57:29.647Z,9.52
2018-03-16T20:59:57.244Z,9.45
2018-03-16T21:02:25.030Z,9.66
2018-03-16T21:04:52.653Z,9.62
2018-03-16T21:07:20.241Z,9.80
2018-03-16T21:09:47.852Z,9.81
2018-03-16T21:12:15.476Z,9.76
2018-03-16T21:14:43.096Z,9.81
2018-03-16T21:17:10.725Z,9.97
2018-03-16T21:19:38.561Z,9.76
2018-03-16T21:22:06.149Z,9.56
2018-03-16T21:24:33.743Z,9.67
2018-03-16T21:27:01.350Z,9.82
2018-03-16T21:29:28.936Z,9.27
2018-03-16T21:31:56.547Z,8.87
2018-03-16T21:34:24.147Z,8.73
2018-03-16T21:36:51.760Z,8.78
2018-03-16T21:39:19.399Z,8.80
2018-03-16T21:41:46.977Z,8.79
2018-03-16T21:44:14.567Z,8.66
2018-03-16T21:46:42.555Z,8.68
2018-03-16T21:49:10.185Z,8.45
2018-03-16T21:51:37.779Z,8.35
2018-03-16T21:54:05.396Z,8.33
2018-03-16T21:56:32.994Z,8.36
2018-03-16T21:59:00.614Z,8.26
2018-03-16T22:01:28.252Z,7.74
2018-03-16T22:03:55.845Z,7.73
2018-03-16T22:06:23.484Z,7.79
2018-03-16T22:08:51.730Z,7.63
2018-03-16T22:11:19.314Z,7.17
2018-03-16T22:13:46.943Z,7.08
2018-03-16T22:16:14.553Z,6.68
2018-03-16T22:18:42.137Z,6.78
2018-03-16T22:21:09.752Z,6.84
2018-03-16T22:23:37.340Z,6.98
2018-03-16T22:26:05.241Z,6.56
2018-03-16T22:28:32.829Z,6.63
2018-03-16T22:31:00.423Z,6.74
2018-03-16T22:33:28.073Z,6.67
2018-03-16T22:35:55.674Z,6.53
2018-03-16T22:38:23.429Z,6.57
2018-03-16T22:40:51.017Z,6.45
2018-03-16T22:43:18.657Z,6.45
2018-03-16T22:45:46.290Z,6.45
2018-03-16T22:48:14.004Z,6.54
2018-03-16T22:50:41.622Z,6.46
2018-03-16T22:53:09.240Z,6.51
2018-03-16T22:55:36.843Z,6.40
2018-03-16T22:58:04.551Z,6.37
2018-03-16T23:00:32.204Z,6.33
2018-03-16T23:02:59.796Z,6.28
2018-03-16T23:05:27.399Z,6.24
2018-03-16T23:07:55.013Z,6.12
2018-03-16T23:10:22.605Z,6.16
2018-03-16T23:12:50.218Z,5.95
2018-03-16T23:15:18.221Z,6.17
2018-03-16T23:17:45.865Z,5.93
2018-03-16T23:20:13.583Z,5.83
2018-03-16T23:22:41.180Z,5.70
2018-03-16T23:25:08.821Z,5.42
2018-03-16T23:27:36.414Z,5.25
2018-03-16T23:30:04.036Z,5.39
2018-03-16T23:32:31.617Z,5.44
2018-03-16T23:34:59.488Z,5.51
2018-03-16T23:37:27.171Z,5.20
2018-03-16T23:39:54.780Z,5.16
2018-03-16T23:42:22.476Z,5.04
2018-03-16T23:44:50.148Z,4.89
2018-03-16T23:47:17.856Z,4.70
2018-03-16T23:49:45.456Z,4.59
2018-03-16T23:52:13.168Z,4.60
2018-03-16T23:54:40.840Z,4.60
2018-03-16T23:57:08.461Z,4.55
2018-03-16T23:59:36.168Z,4.56
